Time;durP1;ratioP1;P1;durP2;ratioP2;P2;SDS_P1;SDS_P2;PMS_P1;PMS_P2;Temp;Humidity;BMP_temperature;BMP_pressure;BME280_temperature;BME280_humidity;BME280_pressure;Samples;Min_cycle;Max_cycle;Signal;HPM_P1;HPM_P2
2022/01/22 00:00:22;;;;;;;3.30;1.45;;;;;;;-1.38;70.37;99672.20;1651113;85;21803;-72
2022/01/22 00:02:51;;;;;;;3.47;0.98;;;;;;;-1.39;69.75;99683.75;1649783;86;21049;-72
2022/01/22 00:05:20;;;;;;;;;;;;;;;-1.38;69.42;99679.04;1654463;86;21087;-72
2022/01/22 00:07:47;;;;;;;4.83;1.25;;;;;;;-1.36;69.56;99672.22;1650880;85;20151;-72
2022/01/22 00:10:17;;;;;;;7.97;2.00;;;;;;;-1.38;69.74;99671.36;1646861;86;21119;-71
2022/01/22 00:13:06;;;;;;;4.97;1.25;;;;;;;-1.43;69.76;99673.05;1650207;85;21001;-72
2022/01/22 00:15:16;;;;;;;3.87;1.25;;;;;;;-1.46;69.84;99667.94;1624977;86;21349;-72
2022/01/22 00:17:44;;;;;;;6.12;1.50;;;;;;;-1.50;69.66;99664.53;1646275;85;21042;-72
2022/01/22 00:20:13;;;;;;;4.67;1.30;;;;;;;-1.50;69.71;99673.92;1649355;85;21000;-72
2022/01/22 00:22:39;;;;;;;4.03;1.25;;;;;;;-1.58;68.71;99671.34;1645840;85;21210;-71
2022/01/22 00:25:08;;;;;;;3.07;1.20;;;;;;;-1.56;67.88;99673.92;1646307;87;21188;-71
2022/01/22 00:27:38;;;;;;;4.47;1.00;;;;;;;-1.52;68.07;99665.37;1646446;85;21114;-71
2022/01/22 00:30:08;;;;;;;1.40;0.60;;;;;;;-1.49;68.10;99667.94;1638788;86;21573;-71
2022/01/22 00:32:35;;;;;;;3.92;1.25;;;;;;;-1.48;66.46;99685.03;1637173;85;21002;-71
2022/01/22 00:35:03;;;;;;;2.80;1.20;;;;;;;-1.44;66.55;99684.16;1637975;86;21104;-71
2022/01/22 00:37:29;;;;;;;2.45;0.78;;;;;;;-1.42;67.15;99686.31;1658961;85;21643;-71
2022/01/22 00:39:56;;;;;;;3.02;0.90;;;;;;;-1.41;67.54;99671.36;1636089;86;21164;-72
2022/01/22 00:42:23;;;;;;;1.77;0.70;;;;;;;-1.41;67.43;99669.64;1640710;85;21061;-71
2022/01/22 00:44:51;;;;;;;3.85;0.70;;;;;;;-1.41;67.42;99679.05;1639986;86;23150;-71
2022/01/22 00:47:19;;;;;;;1.40;0.80;;;;;;;-1.41;67.23;99676.48;1637838;86;21068;-71
2022/01/22 00:49:47;;;;;;;2.37;0.85;;;;;;;-1.41;67.41;99682.45;1639602;85;20989;-71
2022/01/22 00:52:13;;;;;;;1.35;0.80;;;;;;;-1.40;67.25;99680.73;1638350;86;21093;-71
2022/01/22 00:54:40;;;;;;;1.50;0.97;;;;;;;-1.38;66.80;99692.70;1640839;85;21287;-71
2022/01/22 00:57:06;;;;;;;3.37;1.50;;;;;;;-1.33;67.45;99685.02;1639126;86;21776;-72
2022/01/22 00:59:33;;;;;;;2.60;1.25;;;;;;;-1.31;67.45;99691.01;1635720;85;21058;-71
2022/01/22 01:02:03;;;;;;;2.53;1.10;;;;;;;-1.32;67.19;99695.69;1639067;86;21034;-71
2022/01/22 01:04:33;;;;;;;2.25;0.93;;;;;;;-1.32;66.58;99691.84;1653115;85;21093;-71
2022/01/22 01:07:02;;;;;;;1.32;0.70;;;;;;;-1.32;67.39;99691.84;1638000;86;21038;-71
2022/01/22 01:09:29;;;;;;;2.12;0.90;;;;;;;-1.32;66.34;99697.40;1638698;86;21149;-71
2022/01/22 01:12:01;;;;;;;2.42;1.10;;;;;;;-1.30;67.00;99687.58;1640798;85;21021;-71
2022/01/22 01:14:31;;;;;;;3.40;1.10;;;;;;;-1.30;66.62;99691.42;1610857;87;21081;-72
2022/01/22 01:17:09;;;;;;;3.47;1.22;;;;;;;-1.28;67.02;99685.88;1636743;86;21100;-71
2022/01/22 01:33:22;;;;;;;2.05;0.95;;;;;;;-1.23;66.98;99709.80;1636986;86;21085;-70
2022/01/22 01:35:41;;;;;;;3.02;0.80;;;;;;;-1.24;66.23;99694.41;1665628;84;21015;-71
2022/01/22 01:38:08;;;;;;;1.80;0.65;;;;;;;-1.23;66.63;99696.99;1638636;86;22426;-71
2022/01/22 01:40:43;;;;;;;1.60;0.72;;;;;;;-1.24;66.55;99697.83;1638391;85;20994;-71
2022/01/22 01:43:09;;;;;;;2.50;0.82;;;;;;;-1.23;66.96;99702.12;1637039;85;22620;-71
2022/01/22 01:45:34;;;;;;;2.92;0.70;;;;;;;-1.23;67.21;99696.99;1667614;84;21007;-71
2022/01/22 01:48:09;;;;;;;2.77;1.12;;;;;;;-1.26;66.87;99700.84;1666141;84;21034;-71
2022/01/22 01:50:36;;;;;;;2.20;1.05;;;;;;;-1.21;67.31;99697.82;1667409;84;21658;-70
2022/01/22 01:53:18;;;;;;;4.25;0.98;;;;;;;-1.24;67.33;99697.83;1665677;84;21029;-70
2022/01/22 01:58:17;;;;;;;1.05;0.60;;;;;;;-1.23;67.58;99693.55;1637553;86;21053;-70
2022/01/22 02:00:45;;;;;;;3.52;1.17;;;;;;;-1.24;67.67;99700.39;1655381;85;21172;-71
2022/01/22 02:03:13;;;;;;;3.35;1.10;;;;;;;-1.25;67.84;99702.53;1640791;86;21005;-71
2022/01/22 02:05:39;;;;;;;3.75;1.15;;;;;;;-1.25;67.90;99703.81;1639404;86;21117;-71
2022/01/22 02:08:08;;;;;;;1.23;0.83;;;;;;;-1.22;68.11;99721.75;1641592;86;21702;-71
2022/01/22 02:10:41;;;;;;;2.22;1.05;;;;;;;-1.24;68.06;99709.78;1651399;85;21827;-71
2022/01/22 02:24:06;;;;;;;3.15;1.10;;;;;;;-1.46;68.08;99729.40;1619671;88;21105;-71
2022/01/22 02:26:33;;;;;;;4.80;1.10;;;;;;;-1.47;67.98;99735.38;1627155;86;21576;-71
2022/01/22 02:29:00;;;;;;;4.12;1.12;;;;;;;-1.49;67.94;99720.00;1639267;85;21062;-71
2022/01/22 02:31:33;;;;;;;4.60;1.30;;;;;;;-1.51;67.96;99724.69;1644267;85;21086;-72
2022/01/22 02:36:41;;;;;;;3.08;1.05;;;;;;;-1.54;67.82;99736.21;1621015;86;21725;-71
2022/01/22 02:39:19;;;;;;;5.67;1.30;;;;;;;-1.55;67.96;99742.19;1639044;86;21070;-71
2022/01/22 02:41:47;;;;;;;5.33;1.50;;;;;;;-1.56;67.94;99750.73;1635741;86;21299;-71
2022/01/22 02:44:33;;;;;;;2.55;1.07;;;;;;;-1.55;67.97;99751.16;1637993;86;21037;-71
2022/01/22 02:46:45;;;;;;;3.87;1.00;;;;;;;-1.53;67.71;99757.14;1610280;87;21982;-71
2022/01/22 02:49:12;;;;;;;2.30;1.10;;;;;;;-1.51;67.62;99761.82;1640708;85;20935;-72
2022/01/22 02:51:39;;;;;;;3.60;1.00;;;;;;;-1.52;67.20;99742.20;1638057;86;21002;-71
2022/01/22 02:54:05;;;;;;;4.03;1.30;;;;;;;-1.48;67.05;99751.18;1638743;85;21220;-71
2022/01/22 02:56:32;;;;;;;4.12;0.90;;;;;;;-1.47;66.87;99750.75;1639138;85;20950;-72
2022/01/22 02:58:59;;;;;;;2.70;0.90;;;;;;;-1.46;67.32;99762.69;1638825;85;21874;-71
2022/01/22 03:01:27;;;;;;;1.98;0.88;;;;;;;-1.47;67.46;99768.67;1637755;86;21560;-71
2022/01/22 03:03:53;;;;;;;6.33;1.52;;;;;;;-1.47;67.45;99776.36;1637093;86;21594;-72
2022/01/22 03:06:20;;;;;;;3.35;1.27;;;;;;;-1.47;67.51;99771.23;1626430;87;21529;-71
2022/01/22 03:08:47;;;;;;;2.85;0.82;;;;;;;-1.45;67.63;99783.62;1628378;87;21027;-71
2022/01/22 03:11:24;;;;;;;;;;;;;;;-1.45;67.85;99779.79;1629176;87;21161;-71
2022/01/22 03:14:34;;;;;;;6.08;1.40;;;;;;;-1.41;67.97;99786.61;1627956;86;20143;-70
2022/01/22 03:16:51;;;;;;;2.20;0.85;;;;;;;-1.41;68.18;99786.61;1634067;85;21105;-71
2022/01/22 03:19:10;;;;;;;;;;;;;;;-1.41;68.31;99792.58;1636935;86;21161;-71
2022/01/22 03:21:39;;;;;;;5.47;1.15;;;;;;;-1.40;68.53;99798.55;1627780;86;20152;-70
2022/01/22 03:29:40;;;;;;;5.83;1.57;;;;;;;-1.37;68.60;99804.99;1639619;86;21098;-72
2022/01/22 03:32:03;;;;;;;3.37;0.85;;;;;;;-1.36;68.58;99813.09;1611618;87;21105;-71
2022/01/22 03:34:36;;;;;;;1.72;0.93;;;;;;;-1.38;68.57;99796.86;1638075;86;20958;-72
2022/01/22 03:36:58;;;;;;;5.40;1.20;;;;;;;-1.38;68.46;99799.42;1610460;87;21124;-72
2022/01/22 03:39:25;;;;;;;2.35;1.00;;;;;;;-1.39;68.50;99810.53;1638063;86;21046;-71
2022/01/22 03:41:52;;;;;;;2.27;0.70;;;;;;;-1.40;68.44;99819.05;1642637;86;20927;-71
2022/01/22 03:44:19;;;;;;;1.80;0.80;;;;;;;-1.40;68.28;99828.01;1639118;86;21104;-71
2022/01/22 03:46:46;;;;;;;;;;;;;;;-1.40;68.07;99828.01;1612460;87;21069;-72
2022/01/22 03:49:15;;;;;;;2.45;0.82;;;;;;;-1.41;68.27;99818.63;1614554;87;21261;-72
2022/01/22 03:51:41;;;;;;;4.80;1.10;;;;;;;-1.44;68.24;99823.31;1654492;85;21045;-71
2022/01/22 03:54:08;;;;;;;4.55;1.05;;;;;;;-1.45;68.32;99825.88;1639611;86;21555;-72
2022/01/22 03:56:34;;;;;;;5.05;1.12;;;;;;;-1.45;68.32;99829.73;1638387;86;21001;-72
2022/01/22 03:59:02;;;;;;;3.90;1.22;;;;;;;-1.48;68.31;99820.76;1645802;86;21640;-72
2022/01/22 04:04:10;;;;;;;3.17;0.90;;;;;;;-1.49;68.48;99833.11;1639523;86;21014;-72
2022/01/22 04:09:06;;;;;;;3.33;1.10;;;;;;;-1.52;68.51;99840.78;1640186;86;21854;-71
2022/01/22 04:11:36;;;;;;;2.72;1.20;;;;;;;-1.55;68.56;99847.18;1659158;85;21097;-71
2022/01/22 04:14:03;;;;;;;2.95;0.90;;;;;;;-1.55;68.62;99859.98;1641117;86;21182;-71
2022/01/22 04:16:31;;;;;;;3.67;1.20;;;;;;;-1.56;68.26;99864.26;1639138;86;21072;-71
2022/01/22 04:27:20;;;;;;;8.23;1.35;;;;;;;-1.52;68.16;99895.84;1649708;85;21985;-71
2022/01/22 04:29:43;;;;;;;1.85;0.93;;;;;;;-1.50;67.80;99889.03;1651725;85;21033;-71
2022/01/22 04:32:10;;;;;;;2.05;1.12;;;;;;;-1.48;67.96;99902.71;1651019;86;21010;-71
2022/01/22 04:34:38;;;;;;;3.15;1.00;;;;;;;-1.45;67.68;99895.03;1646682;85;21085;-71
2022/01/22 04:37:05;;;;;;;6.42;1.17;;;;;;;-1.45;67.60;99896.31;1645375;85;22098;-71
2022/01/22 04:39:31;;;;;;;3.65;1.00;;;;;;;-1.46;67.60;99903.55;1619479;86;22392;-72
2022/01/22 04:41:58;;;;;;;2.40;1.00;;;;;;;-1.45;67.59;99903.57;1643285;85;21392;-71
2022/01/22 04:44:28;;;;;;;2.55;1.12;;;;;;;-1.44;67.43;99904.42;1645582;85;21045;-72
2022/01/22 04:47:02;;;;;;;1.65;0.68;;;;;;;-1.42;67.04;99918.09;1615252;87;21196;-71
2022/01/22 04:57:23;;;;;;;4.55;1.20;;;;;;;-1.38;67.28;99933.89;1622687;86;22399;-71
2022/01/22 04:59:50;;;;;;;4.03;1.13;;;;;;;-1.36;67.32;99928.36;1643389;85;21108;-71
2022/01/22 05:02:16;;;;;;;2.17;0.88;;;;;;;-1.37;67.38;99935.62;1643276;85;21535;-72
2022/01/22 05:04:43;;;;;;;5.57;1.33;;;;;;;-1.38;67.40;99940.30;1643786;85;21636;-71
2022/01/22 05:07:10;;;;;;;5.00;1.20;;;;;;;-1.38;67.17;99930.05;1622995;86;21440;-72
2022/01/22 05:09:36;;;;;;;3.70;1.30;;;;;;;-1.35;67.24;99949.27;1650862;85;21425;-71
2022/01/22 05:12:07;;;;;;;3.80;1.33;;;;;;;-1.35;67.26;99940.31;1650597;85;21733;-71
2022/01/22 05:14:34;;;;;;;6.25;1.55;;;;;;;-1.38;67.15;99930.91;1642878;85;21122;-71
2022/01/22 05:17:03;;;;;;;2.70;1.33;;;;;;;-1.38;67.24;99945.42;1643766;86;21779;-71
2022/01/22 05:22:19;;;;;;;3.00;1.15;;;;;;;-1.41;66.46;99946.69;1641783;86;21145;-71
2022/01/22 05:24:41;;;;;;;2.83;0.82;;;;;;;-1.38;66.84;99951.83;1621935;87;21116;-71
2022/01/22 05:37:47;;;;;;;5.00;1.20;;;;;;;-1.36;66.80;99971.91;1640269;85;21203;-71
2022/01/22 05:40:14;;;;;;;9.00;1.13;;;;;;;-1.35;66.72;99986.42;1649869;85;21168;-72
2022/01/22 05:42:40;;;;;;;4.20;1.50;;;;;;;-1.35;66.33;99973.61;1645691;86;21686;-71
2022/01/22 05:45:09;;;;;;;2.17;0.90;;;;;;;-1.33;66.33;99977.05;1622831;86;21009;-71
2022/01/22 05:47:36;;;;;;;1.82;0.90;;;;;;;-1.33;66.47;99983.45;1644714;85;21160;-71
2022/01/22 05:50:10;;;;;;;3.50;1.00;;;;;;;-1.35;66.64;99992.82;1645118;86;21076;-72
2022/01/22 05:52:42;;;;;;;3.15;1.02;;;;;;;-1.36;66.78;99982.16;1641231;86;21076;-71
2022/01/22 06:00:17;;;;;;;1.65;1.10;;;;;;;-1.39;66.60;99984.70;1642370;86;21747;-71
2022/01/22 06:02:44;;;;;;;6.85;2.12;;;;;;;-1.39;66.98;99985.98;1643201;86;21132;-72
2022/01/22 06:05:11;;;;;;;4.45;2.12;;;;;;;-1.41;67.08;99981.27;1643129;86;21104;-71
2022/01/22 06:07:38;;;;;;;4.45;1.50;;;;;;;-1.41;67.03;99989.80;1653187;85;21442;-72
2022/01/22 06:10:16;;;;;;;2.43;1.10;;;;;;;-1.41;67.03;99996.64;1653207;85;21124;-71
2022/01/22 06:12:43;;;;;;;5.17;1.40;;;;;;;-1.41;66.88;99999.20;1655342;85;21178;-72
2022/01/22 06:15:02;;;;;;;3.52;1.35;;;;;;;-1.43;66.91;100006.01;1671470;84;22258;-71
2022/01/22 06:17:29;;;;;;;3.00;1.20;;;;;;;-1.42;67.07;100010.30;1643378;85;21103;-71
2022/01/22 06:19:56;;;;;;;5.97;1.63;;;;;;;-1.40;67.16;100011.14;1634862;86;21838;-70
2022/01/22 06:22:22;;;;;;;3.63;1.53;;;;;;;-1.42;67.24;100025.67;1634976;85;21148;-70
2022/01/22 06:24:49;;;;;;;5.03;1.60;;;;;;;-1.41;67.24;100032.49;1634344;86;21073;-71
2022/01/22 06:27:16;;;;;;;9.30;1.57;;;;;;;-1.41;67.17;100029.94;1635454;85;22121;-71
2022/01/22 06:29:42;;;;;;;5.45;1.40;;;;;;;-1.40;67.22;100029.08;1634680;86;21772;-71
2022/01/22 06:32:09;;;;;;;4.00;1.40;;;;;;;-1.41;67.20;100037.62;1635880;86;21579;-71
2022/01/22 06:34:35;;;;;;;6.03;1.45;;;;;;;-1.41;67.10;100036.34;1619090;86;21097;-72
2022/01/22 06:37:03;;;;;;;2.67;1.42;;;;;;;-1.42;66.60;100033.35;1637412;85;21197;-71
2022/01/22 06:39:29;;;;;;;6.87;1.92;;;;;;;-1.39;66.90;100033.37;1640028;85;21097;-71
2022/01/22 06:41:56;;;;;;;5.00;1.47;;;;;;;-1.40;66.87;100045.33;1636358;85;21166;-71
2022/01/22 06:44:25;;;;;;;2.02;1.27;;;;;;;-1.41;66.79;100055.55;1637129;85;22045;-71
2022/01/22 06:46:55;;;;;;;5.65;1.72;;;;;;;-1.41;67.05;100055.55;1636019;85;21176;-71
2022/01/22 06:49:22;;;;;;;3.15;1.37;;;;;;;-1.40;66.85;100062.38;1634199;85;21082;-70
2022/01/22 06:51:50;;;;;;;5.72;2.10;;;;;;;-1.40;67.03;100063.25;1635279;86;21116;-73
2022/01/22 06:54:20;;;;;;;5.45;2.00;;;;;;;-1.40;67.10;100054.69;1646142;85;21586;-73
2022/01/22 06:56:45;;;;;;;6.62;2.08;;;;;;;-1.40;67.19;100048.28;1636294;85;21702;-73
2022/01/22 06:59:13;;;;;;;4.45;1.80;;;;;;;-1.38;67.03;100047.88;1634532;86;21654;-73
2022/01/22 07:01:40;;;;;;;7.83;2.30;;;;;;;-1.38;67.14;100054.28;1633002;85;21229;-73
2022/01/22 07:04:07;;;;;;;4.50;1.98;;;;;;;-1.36;67.15;100053.87;1634991;86;21717;-71
2022/01/22 07:06:34;;;;;;;4.08;1.47;;;;;;;-1.36;67.08;100053.87;1635498;85;21196;-73
2022/01/22 07:09:01;;;;;;;4.83;2.02;;;;;;;-1.36;67.10;100061.56;1636249;85;21177;-71
2022/01/22 07:11:27;;;;;;;2.85;1.07;;;;;;;-1.35;67.19;100064.55;1638319;85;21060;-74
2022/01/22 07:13:54;;;;;;;5.17;1.60;;;;;;;-1.34;67.27;100070.13;1637889;85;21193;-77
2022/01/22 07:16:20;;;;;;;4.87;2.12;;;;;;;-1.32;67.33;100070.12;1638227;86;21120;-73
2022/01/22 07:18:47;;;;;;;4.90;2.20;;;;;;;-1.33;67.60;100074.39;1636302;85;21037;-73
2022/01/22 07:21:18;;;;;;;7.20;2.55;;;;;;;-1.30;67.70;100069.28;1638183;86;22101;-73
2022/01/22 07:26:16;;;;;;;4.72;1.77;;;;;;;-1.26;67.84;100068.47;1634624;86;22042;-73
2022/01/22 07:28:43;;;;;;;5.67;1.35;;;;;;;-1.24;67.83;100074.44;1634793;86;21463;-72
2022/01/22 07:31:11;;;;;;;4.45;1.50;;;;;;;-1.23;67.84;100091.55;1645692;85;21820;-73
2022/01/22 07:33:38;;;;;;;5.58;2.10;;;;;;;-1.18;67.87;100091.13;1634008;85;22383;-73
2022/01/22 07:36:05;;;;;;;6.45;1.98;;;;;;;-1.16;67.91;100111.22;1634608;85;21053;-73
2022/01/22 07:38:38;;;;;;;3.85;1.60;;;;;;;-1.12;67.97;100091.62;1624933;87;21019;-72
2022/01/22 07:41:06;;;;;;;3.17;1.62;;;;;;;-1.09;67.97;100089.06;1623446;87;21646;-72
2022/01/22 07:43:33;;;;;;;3.10;1.25;;;;;;;-1.07;68.01;100094.19;1634645;86;21045;-72
2022/01/22 07:45:59;;;;;;;6.83;1.90;;;;;;;-1.09;68.05;100111.25;1634861;85;21904;-73
2022/01/22 07:48:26;;;;;;;3.80;1.70;;;;;;;-1.07;68.14;100108.28;1661714;84;21629;-72
2022/01/22 07:50:53;;;;;;;3.47;1.70;;;;;;;-1.06;68.24;100119.84;1636093;86;21101;-73
2022/01/22 07:53:24;;;;;;;8.48;2.05;;;;;;;-1.03;68.28;100129.25;1633565;85;21347;-72
2022/01/22 07:56:00;;;;;;;11.35;2.55;;;;;;;-1.03;68.50;100113.88;1635590;85;21125;-72
2022/01/22 07:58:32;;;;;;;3.90;1.72;;;;;;;-1.03;68.53;100118.57;1607275;87;21148;-73
2022/01/22 08:01:03;;;;;;;6.75;1.98;;;;;;;-0.98;68.52;100104.48;1634140;85;21073;-74
2022/01/22 08:03:29;;;;;;;6.35;1.98;;;;;;;-0.95;68.57;100109.23;1634550;85;21363;-72
2022/01/22 08:05:56;;;;;;;3.80;1.85;;;;;;;-0.91;68.74;100116.50;1605386;87;21232;-72
2022/01/22 08:08:23;;;;;;;7.08;2.00;;;;;;;-0.92;68.79;100125.05;1637528;86;21796;-73
2022/01/22 08:46:32;;;;;;;7.80;2.33;;;;;;;-1.10;70.87;100186.43;1860604;74;22036;-70
2022/01/22 08:48:58;;;;;;;6.70;2.30;;;;;;;-1.09;70.93;100177.88;1831334;75;21000;-70
2022/01/22 08:51:25;;;;;;;5.65;1.85;;;;;;;-1.02;70.86;100171.97;1837903;75;21571;-70
2022/01/22 08:53:52;;;;;;;5.08;2.15;;;;;;;-0.95;70.89;100186.55;1841493;75;20995;-70
2022/01/22 08:56:19;;;;;;;6.12;1.87;;;;;;;-0.87;70.76;100190.00;1842594;75;21002;-70
2022/01/22 08:58:46;;;;;;;8.85;2.77;;;;;;;-0.75;70.59;100182.41;1848091;75;21074;-71
2022/01/22 09:01:14;;;;;;;4.97;2.20;;;;;;;-0.56;70.40;100195.31;1826692;75;21066;-70
2022/01/22 09:03:44;;;;;;;2.80;1.67;;;;;;;-0.48;70.08;100191.08;1832413;75;21112;-70
2022/01/22 09:06:12;;;;;;;5.50;1.80;;;;;;;-0.39;70.21;100196.28;1819695;75;21045;-70
2022/01/22 09:08:40;;;;;;;;;;;;;;;-0.34;69.92;100194.57;1840492;75;20999;-70
2022/01/22 09:11:07;;;;;;;12.10;2.92;;;;;;;-0.28;70.03;100204.89;1844111;75;20187;-70
2022/01/22 09:13:37;;;;;;;5.45;2.30;;;;;;;-0.21;69.87;100204.91;1832574;75;21489;-72
2022/01/22 09:16:04;;;;;;;7.37;2.25;;;;;;;-0.19;69.77;100209.63;1833047;75;22190;-70
2022/01/22 09:18:31;;;;;;;4.55;1.85;;;;;;;-0.10;69.51;100216.08;1842887;75;21061;-70
2022/01/22 09:23:27;;;;;;;5.50;2.25;;;;;;;0.06;69.21;100217.85;1828917;75;21591;-70
2022/01/22 09:25:53;;;;;;;4.75;2.02;;;;;;;0.19;69.60;100229.86;1834538;75;21111;-71
2022/01/22 09:28:20;;;;;;;7.28;2.22;;;;;;;0.18;68.81;100215.74;1839005;75;21041;-70
2022/01/22 09:30:47;;;;;;;5.15;2.33;;;;;;;0.24;69.12;100214.91;1840982;75;21068;-71
2022/01/22 09:33:15;;;;;;;5.30;2.10;;;;;;;0.31;69.28;100223.03;1839428;75;21065;-70
2022/01/22 09:35:42;;;;;;;3.90;1.72;;;;;;;0.31;68.62;100223.03;1828412;75;22265;-70
2022/01/22 09:38:09;;;;;;;7.83;3.00;;;;;;;0.31;67.99;100229.45;1842739;75;21068;-71
2022/01/22 09:40:36;;;;;;;5.97;2.43;;;;;;;0.21;68.43;100241.00;1805939;75;21113;-71
2022/01/22 09:43:03;;;;;;;4.87;2.08;;;;;;;0.23;68.55;100243.59;1828655;75;20927;-71
2022/01/22 09:45:31;;;;;;;6.05;2.02;;;;;;;0.25;68.14;100246.14;1831783;75;22217;-71
2022/01/22 09:48:01;;;;;;;8.48;1.90;;;;;;;0.29;68.77;100240.18;1843418;75;21018;-71
2022/01/22 09:50:30;;;;;;;2.92;1.60;;;;;;;0.38;68.86;100241.05;1845459;75;21038;-70
2022/01/22 09:52:57;;;;;;;5.55;1.92;;;;;;;0.30;67.97;100244.45;1849496;75;21065;-71
2022/01/22 09:55:25;;;;;;;6.22;2.12;;;;;;;0.30;68.71;100243.16;1838135;75;21584;-71
2022/01/22 09:58:53;;;;;;;4.37;1.70;;;;;;;0.44;68.79;100245.34;1874466;75;22769;-71
2022/01/22 10:01:25;;;;;;;4.20;1.52;;;;;;;0.40;68.81;100248.77;1831375;76;21105;-71
2022/01/22 10:03:56;;;;;;;4.47;2.72;;;;;;;0.42;68.66;100254.75;1832372;76;21796;-72
2022/01/22 10:06:29;;;;;;;6.20;1.35;;;;;;;0.40;68.40;100257.33;1840582;76;21039;-72
2022/01/22 10:09:13;;;;;;;7.33;2.30;;;;;;;0.31;68.07;100257.71;1836078;76;21014;-72
2022/01/22 10:11:41;;;;;;;7.10;2.80;;;;;;;0.34;68.68;100257.75;1834308;76;21007;-72
2022/01/22 10:14:09;;;;;;;7.15;2.20;;;;;;;0.44;68.82;100260.75;1837478;76;20998;-72
2022/01/22 10:16:39;;;;;;;4.03;2.00;;;;;;;0.58;68.47;100259.06;1833968;76;21107;-72
2022/01/22 10:19:28;;;;;;;7.17;2.25;;;;;;;0.61;68.31;100256.50;1830772;76;21627;-72
2022/01/22 10:21:59;;;;;;;8.93;2.58;;;;;;;0.73;68.40;100270.23;1828737;77;21075;-74
2022/01/22 10:24:41;;;;;;;7.42;2.30;;;;;;;0.79;68.22;100259.98;1806264;77;21686;-68
2022/01/22 10:27:35;;;;;;;6.72;2.80;;;;;;;0.79;67.77;100267.69;1831933;76;20998;-71
2022/01/22 10:30:15;;;;;;;11.30;3.67;;;;;;;0.86;68.13;100271.97;1823482;77;21028;-70
2022/01/22 10:34:37;;;;;;;13.00;4.28;;;;;;;0.93;68.03;100287.84;1859223;75;23482;-70
2022/01/22 10:37:04;;;;;;;11.60;4.50;;;;;;;0.81;68.32;100289.09;1775917;79;21426;-71
2022/01/22 10:42:23;;;;;;;11.40;4.87;;;;;;;0.80;67.62;100300.24;1850956;75;22181;-72
2022/01/22 10:45:03;;;;;;;11.08;4.40;;;;;;;0.74;68.07;100295.09;1833251;76;20969;-69
2022/01/22 10:47:28;;;;;;;8.70;3.42;;;;;;;0.68;68.01;100292.52;1820549;76;21352;-70
2022/01/22 10:49:55;;;;;;;8.60;2.95;;;;;;;0.68;68.13;100289.95;1818495;77;22048;-70
2022/01/22 10:52:22;;;;;;;10.13;3.33;;;;;;;0.72;68.23;100294.23;1802513;77;21068;-72
2022/01/22 10:54:54;;;;;;;10.43;2.90;;;;;;;0.75;68.30;100294.23;1832262;76;21667;-71
2022/01/22 10:57:23;;;;;;;5.67;2.70;;;;;;;0.72;68.14;100299.37;1821493;77;21110;-70
2022/01/22 10:59:55;;;;;;;3.67;1.87;;;;;;;0.66;67.79;100298.50;1825900;76;21057;-70
2022/01/22 11:02:38;;;;;;;5.83;2.40;;;;;;;0.49;66.95;100304.02;1832489;77;22515;-73
2022/01/22 11:05:06;;;;;;;6.28;2.33;;;;;;;0.45;67.77;100298.45;1830675;77;21243;-73
2022/01/22 11:07:33;;;;;;;8.73;2.33;;;;;;;0.44;67.96;100301.86;1832422;77;21781;-73
2022/01/22 11:10:01;;;;;;;4.33;1.67;;;;;;;0.49;67.74;100298.88;1830090;76;21537;-72
2022/01/22 11:12:27;;;;;;;6.58;2.62;;;;;;;0.51;68.01;100304.89;1832034;77;21949;-71
2022/01/22 11:14:54;;;;;;;8.58;2.98;;;;;;;0.55;67.93;100305.32;1829266;76;21555;-72
2022/01/22 11:17:24;;;;;;;6.70;2.83;;;;;;;0.52;67.50;100305.31;1826377;75;20955;-71
2022/01/22 11:19:52;;;;;;;6.25;2.33;;;;;;;0.50;67.82;100303.59;1832448;77;20944;-72
2022/01/22 11:22:19;;;;;;;7.53;2.25;;;;;;;0.53;67.50;100309.59;1830316;77;21494;-73
2022/01/22 11:24:51;;;;;;;3.70;1.55;;;;;;;0.64;68.02;100317.33;1828653;76;21485;-71
2022/01/22 11:27:21;;;;;;;4.70;1.87;;;;;;;0.66;66.91;100307.48;1838425;75;21088;-70
2022/01/22 11:29:56;;;;;;;9.50;2.25;;;;;;;0.63;67.57;100308.77;1832524;77;21643;-71
2022/01/22 11:32:28;;;;;;;4.70;1.80;;;;;;;0.65;67.87;100322.49;1833793;76;21074;-71
2022/01/22 11:35:00;;;;;;;3.67;1.67;;;;;;;0.64;67.73;100328.50;1823798;76;22192;-71
2022/01/22 11:38:07;;;;;;;4.90;1.95;;;;;;;0.51;66.99;100329.30;1836613;76;21558;-71
2022/01/22 11:40:34;;;;;;;;;;;;;;;0.44;67.27;100335.26;1825435;76;21595;-71
2022/01/22 11:43:07;;;;;;;6.03;2.52;;;;;;;0.42;67.40;100340.81;1837653;76;20168;-70
2022/01/22 11:45:43;;;;;;;6.67;2.40;;;;;;;0.36;67.33;100339.51;1843691;76;21077;-71
2022/01/22 11:48:23;;;;;;;7.92;2.65;;;;;;;0.37;67.66;100348.95;1838595;77;20970;-71
2022/01/22 11:50:53;;;;;;;6.75;2.47;;;;;;;0.31;67.44;100351.47;1826273;77;21085;-71
2022/01/22 11:53:33;;;;;;;6.53;2.22;;;;;;;0.34;67.31;100363.92;1821871;77;21022;-70
2022/01/22 11:56:28;;;;;;;4.37;1.67;;;;;;;0.34;67.35;100356.64;1804339;77;21026;-70
2022/01/22 11:59:04;;;;;;;3.62;1.70;;;;;;;0.30;67.47;100349.33;1826658;77;21038;-74
2022/01/22 12:01:52;;;;;;;5.15;2.35;;;;;;;0.28;67.46;100355.31;1824969;76;21059;-71
2022/01/22 12:04:29;;;;;;;7.00;2.62;;;;;;;0.28;67.56;100365.19;1822930;77;21280;-71
2022/01/22 12:07:07;;;;;;;4.47;2.33;;;;;;;0.25;67.49;100360.44;1826723;76;22108;-70
2022/01/22 12:15:49;;;;;;;4.40;2.15;;;;;;;0.16;67.14;100370.23;1838265;77;21102;-70
2022/01/22 12:18:19;;;;;;;4.42;1.90;;;;;;;0.03;67.10;100380.88;1834796;77;22225;-71
2022/01/22 12:23:35;;;;;;;3.98;1.90;;;;;;;-0.02;67.53;100376.14;1837538;77;21014;-71
2022/01/22 12:26:03;;;;;;;9.55;3.12;;;;;;;0.02;67.29;100367.59;1830908;77;21056;-70
2022/01/22 12:28:40;;;;;;;7.35;2.50;;;;;;;0.00;67.21;100379.58;1827018;77;21053;-71
2022/01/22 12:31:10;;;;;;;8.25;2.55;;;;;;;0.00;67.29;100374.45;1828047;77;21094;-71
2022/01/22 12:33:44;;;;;;;7.05;2.08;;;;;;;-0.02;67.43;100386.41;1832146;77;21049;-70
2022/01/22 12:36:18;;;;;;;5.67;2.98;;;;;;;-0.06;67.36;100376.95;1829768;76;21135;-71
2022/01/22 12:38:51;;;;;;;5.90;2.40;;;;;;;-0.09;67.53;100376.94;1834326;77;22008;-70
2022/01/22 12:44:29;;;;;;;4.83;2.35;;;;;;;0.03;67.70;100383.45;1832944;76;21127;-70
2022/01/22 12:47:01;;;;;;;6.67;1.80;;;;;;;0.04;67.48;100389.01;1830258;76;21108;-70
2022/01/22 12:49:29;;;;;;;5.03;2.15;;;;;;;0.03;67.42;100376.14;1825200;77;20986;-71
2022/01/22 12:52:03;;;;;;;7.10;2.85;;;;;;;0.01;67.61;100386.42;1829303;76;21098;-71
2022/01/22 12:54:38;;;;;;;8.85;3.40;;;;;;;0.01;67.50;100388.99;1827489;77;20967;-70
2022/01/22 12:57:15;;;;;;;6.90;2.80;;;;;;;-0.04;67.56;100389.37;1832753;76;22424;-69
2022/01/22 13:02:53;;;;;;;7.03;3.00;;;;;;;0.06;67.78;100397.59;1772307;79;21779;-70
2022/01/22 13:05:21;;;;;;;8.13;3.12;;;;;;;0.10;67.76;100380.48;1776025;79;21126;-70
2022/01/22 13:07:54;;;;;;;4.15;2.10;;;;;;;0.18;67.77;100392.52;1772918;80;21404;-68
2022/01/22 13:10:33;;;;;;;6.67;2.30;;;;;;;0.13;67.46;100400.61;1775005;79;21104;-70
2022/01/22 13:12:56;;;;;;;9.58;2.27;;;;;;;0.09;67.50;100415.58;1776401;79;21902;-70
2022/01/22 13:15:23;;;;;;;6.08;2.12;;;;;;;0.05;67.45;100413.82;1775400;80;21390;-71
2022/01/22 13:17:55;;;;;;;;;;;;;;;0.03;67.43;100414.27;1779815;79;21389;-70
2022/01/22 13:20:25;;;;;;;5.58;2.10;;;;;;;-0.02;67.58;100418.50;1770813;80;20255;-71
2022/01/22 13:22:52;;;;;;;7.65;2.55;;;;;;;-0.05;67.71;100426.19;1736022;81;21800;-70
2022/01/22 13:25:20;;;;;;;9.18;3.00;;;;;;;-0.04;67.75;100425.32;1776124;80;21690;-70
2022/01/22 13:28:10;;;;;;;;;;;;;;;-0.05;67.87;100428.75;1783906;80;21083;-70
2022/01/22 13:30:43;;;;;;;6.60;2.92;;;;;;;-0.08;67.62;100439.00;1777956;80;20321;-71
2022/01/22 13:33:22;;;;;;;7.35;3.22;;;;;;;-0.15;67.68;100441.92;1768413;78;21108;-70
2022/01/22 13:36:07;;;;;;;;;;;;;;;-0.14;67.86;100442.78;1778404;77;21833;-70
2022/01/22 13:45:06;;;;;;;5.97;2.87;;;;;;;-0.20;67.93;100442.73;1835213;77;21521;-70
2022/01/22 13:49:27;;;;;;;6.42;2.40;;;;;;;-0.25;67.66;100443.57;1812960;77;22447;-70
2022/01/22 13:52:01;;;;;;;6.12;2.87;;;;;;;-0.28;67.87;100451.25;1810619;77;20995;-70
2022/01/22 13:54:47;;;;;;;8.03;3.17;;;;;;;-0.27;67.84;100452.10;1813968;77;21063;-70
2022/01/22 13:57:23;;;;;;;4.67;2.30;;;;;;;-0.26;67.94;100451.24;1790260;78;20999;-70
2022/01/22 13:59:54;;;;;;;9.78;2.65;;;;;;;-0.28;67.86;100446.11;1805270;77;21030;-70
2022/01/22 14:02:50;;;;;;;6.67;2.55;;;;;;;-0.31;67.41;100453.79;1817184;77;21046;-71
2022/01/22 14:05:09;;;;;;;7.33;2.85;;;;;;;-0.33;67.50;100458.04;1813942;77;21741;-71
2022/01/22 14:07:47;;;;;;;7.80;3.62;;;;;;;-0.35;67.54;100466.14;1816336;77;21716;-71